Time;durP1;ratioP1;P1;durP2;ratioP2;P2;SDS_P1;SDS_P2;PMS_P1;PMS_P2;Temp;Humidity;BMP_temperature;BMP_pressure;BME280_temperature;BME280_humidity;BME280_pressure;Samples;Min_cycle;Max_cycle;Signal;HPM_P1;HPM_P2
2023/10/06 00:00:46;;;;;;;9.15;1.92;;;15.90;88.70;;;;;;5045933;28;20035;-74
2023/10/06 00:03:14;;;;;;;10.75;2.13;;;15.90;88.70;;;;;;5066074;28;20102;-74
2023/10/06 00:05:41;;;;;;;8.15;1.98;;;15.90;88.60;;;;;;5054383;28;20119;-74
2023/10/06 00:08:10;;;;;;;11.82;2.20;;;16.00;88.70;;;;;;5062959;28;20025;-74
2023/10/06 00:10:44;;;;;;;10.13;2.15;;;15.90;89.00;;;;;;5054309;28;20583;-74
2023/10/06 00:13:18;;;;;;;15.63;2.08;;;15.90;89.40;;;;;;5060822;28;20033;-74
2023/10/06 00:15:45;;;;;;;11.68;2.10;;;15.80;89.40;;;;;;5049881;28;20024;-74
2023/10/06 00:18:16;;;;;;;12.43;2.65;;;15.80;89.80;;;;;;5065167;28;20033;-74
2023/10/06 00:20:55;;;;;;;6.45;1.90;;;15.80;89.70;;;;;;5047341;28;20508;-74
2023/10/06 00:23:22;;;;;;;12.52;2.00;;;15.70;89.70;;;;;;5066336;28;20082;-74
2023/10/06 00:25:51;;;;;;;12.45;1.90;;;15.70;89.40;;;;;;5050937;28;20035;-75
2023/10/06 00:28:21;;;;;;;8.63;1.88;;;15.70;89.40;;;;;;5057440;28;20036;-74
2023/10/06 00:30:48;;;;;;;12.18;2.30;;;15.70;89.30;;;;;;5048248;28;20594;-74
2023/10/06 00:33:15;;;;;;;10.30;1.92;;;15.60;90.00;;;;;;5061128;28;20560;-74
2023/10/06 00:35:41;;;;;;;9.57;2.10;;;15.70;89.60;;;;;;5047816;28;20036;-74
2023/10/06 00:38:12;;;;;;;11.48;2.03;;;15.70;89.80;;;;;;5063504;28;20031;-74
2023/10/06 00:40:42;;;;;;;11.20;2.70;;;15.70;89.90;;;;;;5047043;28;20427;-74
2023/10/06 00:43:08;;;;;;;10.63;2.95;;;15.70;90.00;;;;;;5062104;28;20036;-75
2023/10/06 00:45:39;;;;;;;11.93;2.38;;;15.70;90.20;;;;;;5053601;28;20035;-74
2023/10/06 00:48:13;;;;;;;14.45;2.70;;;15.70;90.20;;;;;;5060187;28;20047;-74
2023/10/06 00:50:40;;;;;;;12.90;2.33;;;15.70;90.20;;;;;;5050039;28;20147;-73
2023/10/06 00:53:05;;;;;;;13.43;2.53;;;15.70;90.30;;;;;;5063777;28;20401;-75
2023/10/06 00:55:31;;;;;;;12.48;2.35;;;15.70;90.40;;;;;;5053024;28;20043;-74
2023/10/06 00:57:57;;;;;;;13.20;2.30;;;15.70;90.70;;;;;;5063847;28;20098;-74
2023/10/06 01:00:24;;;;;;;18.90;2.17;;;15.60;90.90;;;;;;5060253;28;20098;-74
2023/10/06 01:02:50;;;;;;;7.13;1.95;;;15.60;91.00;;;;;;5048856;28;21220;-74
2023/10/06 01:05:16;;;;;;;14.15;2.35;;;15.60;91.10;;;;;;5067144;28;20037;-74
2023/10/06 01:07:45;;;;;;;8.68;2.30;;;15.60;91.20;;;;;;5048529;28;20040;-73
2023/10/06 01:10:16;;;;;;;10.02;2.13;;;15.50;91.20;;;;;;5067226;28;20492;-73
2023/10/06 01:12:43;;;;;;;15.27;2.63;;;15.60;91.40;;;;;;5054196;28;20064;-74
2023/10/06 01:15:19;;;;;;;9.57;1.90;;;15.50;91.30;;;;;;5060566;28;21059;-75
2023/10/06 01:17:45;;;;;;;11.00;2.45;;;15.50;91.10;;;;;;5050699;28;20037;-75
2023/10/06 01:20:18;;;;;;;13.73;2.95;;;15.50;91.30;;;;;;5065796;28;20025;-75
2023/10/06 01:22:44;;;;;;;15.13;2.38;;;15.40;91.30;;;;;;5052684;28;20029;-74
2023/10/06 01:25:20;;;;;;;11.27;2.13;;;15.40;91.40;;;;;;5065594;28;20072;-75
2023/10/06 01:27:50;;;;;;;10.63;2.33;;;15.40;91.40;;;;;;5048506;28;20050;-75
2023/10/06 01:32:45;;;;;;;10.05;2.28;;;15.30;91.40;;;;;;5047933;28;19912;-75
2023/10/06 01:35:12;;;;;;;14.27;2.55;;;15.30;91.50;;;;;;5059378;28;20415;-75
2023/10/06 01:37:42;;;;;;;8.75;1.92;;;15.30;91.50;;;;;;5050671;28;20051;-75
2023/10/06 01:41:14;;;;;;;9.82;2.20;;;15.30;91.40;;;;;;5066021;28;20067;-75
2023/10/06 01:42:56;;;;;;;11.70;2.00;;;15.20;91.40;;;;;;5052138;28;20040;-74
2023/10/06 01:45:21;;;;;;;12.57;2.03;;;15.20;91.40;;;;;;5062335;28;20082;-73
2023/10/06 01:47:55;;;;;;;16.33;2.30;;;15.10;91.50;;;;;;5047745;28;20066;-74
2023/10/06 01:50:26;;;;;;;10.05;2.17;;;15.10;91.70;;;;;;5066976;28;20037;-74
2023/10/06 01:52:56;;;;;;;8.88;2.38;;;15.10;91.80;;;;;;5056199;28;20497;-74
2023/10/06 01:55:24;;;;;;;7.05;1.75;;;15.10;91.80;;;;;;5064136;28;20028;-74
2023/10/06 01:57:51;;;;;;;10.18;2.25;;;15.00;91.90;;;;;;5057067;28;21064;-74
2023/10/06 02:00:26;;;;;;;13.55;2.17;;;15.00;91.90;;;;;;5067602;28;20539;-74
2023/10/06 02:02:52;;;;;;;15.00;2.17;;;15.00;92.20;;;;;;5038282;28;20255;-73
2023/10/06 02:05:17;;;;;;;12.90;2.35;;;14.90;92.40;;;;;;5062605;28;20031;-74
2023/10/06 02:07:44;;;;;;;9.27;2.30;;;14.90;92.30;;;;;;5051264;28;20040;-74
2023/10/06 02:10:15;;;;;;;8.15;2.28;;;14.90;92.20;;;;;;5064208;28;20043;-74
2023/10/06 02:12:42;;;;;;;13.07;2.08;;;14.80;92.30;;;;;;5065619;28;20391;-74
2023/10/06 02:15:11;;;;;;;13.05;2.63;;;14.70;92.50;;;;;;5055310;28;20028;-74
2023/10/06 02:17:37;;;;;;;10.32;2.00;;;14.60;92.70;;;;;;5065969;28;20027;-74
2023/10/06 02:20:34;;;;;;;9.68;2.28;;;14.50;92.80;;;;;;5054748;28;20071;-74
2023/10/06 02:22:52;;;;;;;13.80;2.78;;;14.50;93.00;;;;;;5063207;28;20139;-74
2023/10/06 02:25:20;;;;;;;16.25;2.95;;;14.40;93.10;;;;;;5054484;28;20075;-75
2023/10/06 02:27:47;;;;;;;5.78;2.38;;;14.40;93.40;;;;;;5059839;28;20147;-75
2023/10/06 02:30:15;;;;;;;15.38;2.50;;;14.40;93.60;;;;;;5052631;28;20108;-75
2023/10/06 02:32:43;;;;;;;14.30;2.60;;;14.40;94.20;;;;;;5067260;28;20024;-76
2023/10/06 02:35:09;;;;;;;14.27;2.90;;;14.40;93.90;;;;;;5049929;28;20028;-73
2023/10/06 02:37:35;;;;;;;10.05;2.55;;;14.40;94.20;;;;;;5064385;28;20488;-74
2023/10/06 02:40:00;;;;;;;11.70;2.30;;;14.50;94.50;;;;;;5055936;28;20152;-74
2023/10/06 02:42:26;;;;;;;10.48;2.30;;;14.60;94.40;;;;;;5067117;28;20085;-74
2023/10/06 02:44:53;;;;;;;19.05;2.70;;;14.60;94.40;;;;;;5056903;28;20121;-74
2023/10/06 02:47:21;;;;;;;13.27;2.50;;;14.80;94.30;;;;;;5063911;28;20024;-74
2023/10/06 02:49:48;;;;;;;14.98;2.85;;;14.90;94.10;;;;;;5050180;28;20475;-74
2023/10/06 02:52:20;;;;;;;11.25;2.28;;;15.10;93.70;;;;;;5068323;28;20039;-74
2023/10/06 02:54:55;;;;;;;15.07;2.30;;;15.20;93.40;;;;;;5049916;28;20519;-74
2023/10/06 02:57:21;;;;;;;14.77;2.47;;;15.30;93.20;;;;;;5067381;28;20037;-74
2023/10/06 02:59:48;;;;;;;11.43;2.67;;;15.30;93.20;;;;;;5053893;28;21464;-74
2023/10/06 03:02:17;;;;;;;11.05;2.50;;;15.40;93.00;;;;;;5058714;28;20040;-75
2023/10/06 03:04:44;;;;;;;11.10;2.47;;;15.40;92.90;;;;;;5058705;28;20032;-72
2023/10/06 03:07:15;;;;;;;12.95;2.38;;;15.40;93.10;;;;;;5068115;28;20048;-73
2023/10/06 03:09:46;;;;;;;11.32;2.60;;;15.50;93.00;;;;;;5063875;28;20597;-75
2023/10/06 03:12:26;;;;;;;11.88;2.33;;;15.50;92.90;;;;;;5063403;28;20476;-73
2023/10/06 03:14:54;;;;;;;15.25;3.05;;;15.50;93.00;;;;;;5062985;28;20139;-73
2023/10/06 03:17:20;;;;;;;13.45;2.60;;;15.50;93.00;;;;;;5057153;28;20044;-74
2023/10/06 03:20:04;;;;;;;13.13;2.25;;;15.60;92.90;;;;;;5064522;28;20818;-74
2023/10/06 03:22:30;;;;;;;12.27;2.60;;;15.50;92.80;;;;;;5051945;28;20468;-74
2023/10/06 03:25:00;;;;;;;13.93;3.05;;;15.60;92.80;;;;;;5069467;28;20109;-74
2023/10/06 03:27:26;;;;;;;12.88;2.13;;;15.50;92.90;;;;;;5053258;28;20029;-75
2023/10/06 03:29:55;;;;;;;14.50;2.75;;;15.60;93.00;;;;;;5065033;28;20039;-75
2023/10/06 03:32:38;;;;;;;12.50;2.40;;;15.70;92.90;;;;;;5055242;28;20032;-74
2023/10/06 03:35:16;;;;;;;18.67;2.90;;;15.70;92.80;;;;;;5058766;28;20084;-74
2023/10/06 03:37:51;;;;;;;13.65;2.95;;;15.80;92.70;;;;;;5059308;28;20103;-74
2023/10/06 03:40:23;;;;;;;10.68;2.28;;;15.80;92.60;;;;;;5065475;28;20048;-74
2023/10/06 03:42:50;;;;;;;8.80;2.47;;;15.70;92.50;;;;;;5051921;28;20038;-75
2023/10/06 03:45:26;;;;;;;13.10;2.53;;;15.70;92.60;;;;;;5066331;28;20360;-74
2023/10/06 03:47:53;;;;;;;14.02;2.75;;;15.70;92.30;;;;;;5052448;28;20033;-74
2023/10/06 03:50:20;;;;;;;10.90;2.60;;;15.60;92.40;;;;;;5065861;28;20515;-75
2023/10/06 03:52:47;;;;;;;10.63;2.90;;;15.60;92.50;;;;;;5053847;28;20131;-74
2023/10/06 03:55:13;;;;;;;16.45;3.33;;;15.50;92.60;;;;;;5060020;28;20294;-73
2023/10/06 03:57:39;;;;;;;11.85;2.13;;;15.40;92.60;;;;;;5052758;28;20075;-75
2023/10/06 04:00:07;;;;;;;13.23;2.85;;;15.40;92.60;;;;;;5067455;28;20511;-73
2023/10/06 04:02:38;;;;;;;10.90;2.67;;;15.30;92.70;;;;;;5048528;28;20482;-73
2023/10/06 04:05:06;;;;;;;12.77;2.42;;;15.20;92.90;;;;;;5050529;28;20039;-73
2023/10/06 04:07:32;;;;;;;9.20;2.17;;;15.10;93.40;;;;;;5048221;28;20144;-74
2023/10/06 04:09:58;;;;;;;17.27;3.08;;;15.00;93.30;;;;;;5062360;28;20020;-74
2023/10/06 04:12:25;;;;;;;11.48;2.75;;;15.10;93.40;;;;;;5042637;28;20039;-74
2023/10/06 04:14:53;;;;;;;10.25;2.92;;;15.00;93.50;;;;;;5062364;28;20035;-74
2023/10/06 04:17:21;;;;;;;14.63;3.03;;;15.00;93.50;;;;;;5048169;28;20451;-74
2023/10/06 04:19:48;;;;;;;10.60;2.17;;;15.10;93.50;;;;;;5068873;28;20637;-74
2023/10/06 04:22:14;;;;;;;17.80;2.80;;;15.10;93.40;;;;;;5049870;28;20058;-74
2023/10/06 04:24:40;;;;;;;12.15;2.72;;;15.10;93.40;;;;;;5065330;28;20028;-74
2023/10/06 04:27:05;;;;;;;9.68;2.30;;;15.10;93.50;;;;;;5068456;28;20051;-74
2023/10/06 04:29:35;;;;;;;12.18;3.00;;;15.00;93.40;;;;;;5048169;28;20035;-74
2023/10/06 04:32:01;;;;;;;16.42;2.60;;;15.00;93.50;;;;;;5065291;28;20032;-74
2023/10/06 04:34:33;;;;;;;11.85;2.47;;;15.00;93.60;;;;;;5052590;28;20028;-74
2023/10/06 04:37:00;;;;;;;12.68;2.90;;;14.90;93.80;;;;;;5063867;28;20027;-73
2023/10/06 04:39:26;;;;;;;13.43;2.85;;;14.90;94.00;;;;;;5053643;28;20531;-74
2023/10/06 04:41:55;;;;;;;15.73;3.20;;;14.90;94.00;;;;;;5062966;28;20037;-73
2023/10/06 04:44:21;;;;;;;10.30;2.38;;;14.90;93.90;;;;;;5051537;28;20028;-74
2023/10/06 04:46:46;;;;;;;14.32;3.28;;;15.00;93.90;;;;;;5065805;28;20043;-75
2023/10/06 04:49:12;;;;;;;10.63;2.60;;;15.00;93.80;;;;;;5048019;28;20392;-73
2023/10/06 04:51:38;;;;;;;14.63;3.08;;;15.10;94.00;;;;;;5067591;28;20032;-73
2023/10/06 04:54:07;;;;;;;14.60;2.40;;;15.20;93.50;;;;;;5055528;28;20024;-74
2023/10/06 04:56:33;;;;;;;11.82;2.78;;;15.20;93.40;;;;;;5062664;28;20492;-74
2023/10/06 04:58:59;;;;;;;12.23;2.30;;;15.20;93.40;;;;;;5055269;28;20032;-74
2023/10/06 05:01:29;;;;;;;12.05;2.28;;;15.20;93.30;;;;;;5060229;28;20466;-73
2023/10/06 05:03:54;;;;;;;17.38;2.85;;;15.20;93.20;;;;;;5052310;28;20315;-73
2023/10/06 05:06:21;;;;;;;12.00;2.45;;;15.30;93.40;;;;;;5065243;28;20039;-73
2023/10/06 05:08:47;;;;;;;16.77;2.53;;;15.30;93.00;;;;;;5050618;28;20464;-74
2023/10/06 05:11:15;;;;;;;7.20;2.00;;;15.30;92.90;;;;;;5060790;28;20020;-74
2023/10/06 05:13:40;;;;;;;12.95;2.88;;;15.40;92.80;;;;;;5065112;28;20034;-74
2023/10/06 05:16:06;;;;;;;13.02;2.38;;;15.40;92.70;;;;;;5045978;28;20029;-74
2023/10/06 05:18:33;;;;;;;17.65;2.30;;;15.40;92.70;;;;;;5065840;28;20025;-74
2023/10/06 05:20:59;;;;;;;9.50;2.50;;;15.40;92.80;;;;;;5050559;28;20045;-74
2023/10/06 05:23:26;;;;;;;15.70;2.97;;;15.40;92.80;;;;;;5063454;28;21190;-74
2023/10/06 05:25:54;;;;;;;13.20;2.40;;;15.40;92.70;;;;;;5054916;28;20508;-74
2023/10/06 05:28:20;;;;;;;10.98;2.50;;;15.40;92.70;;;;;;5070445;28;20086;-74
2023/10/06 05:30:46;;;;;;;13.15;2.35;;;15.40;92.90;;;;;;5053888;28;20032;-73
2023/10/06 05:33:14;;;;;;;10.57;1.90;;;15.30;92.70;;;;;;5066719;28;20039;-74
2023/10/06 05:35:39;;;;;;;13.15;2.67;;;15.30;92.80;;;;;;5050292;28;20036;-74
2023/10/06 05:38:12;;;;;;;15.60;2.58;;;15.30;93.10;;;;;;5066345;28;20044;-75
2023/10/06 05:40:40;;;;;;;11.05;2.17;;;15.30;92.80;;;;;;5053979;28;20071;-74
2023/10/06 05:43:11;;;;;;;11.07;2.00;;;15.20;92.80;;;;;;5064904;28;20072;-74
2023/10/06 05:45:39;;;;;;;12.50;2.85;;;15.20;92.90;;;;;;5056287;28;20020;-74
2023/10/06 05:48:10;;;;;;;9.20;2.45;;;15.20;93.00;;;;;;5061864;28;20536;-74
2023/10/06 05:50:36;;;;;;;12.57;2.78;;;15.20;93.10;;;;;;5053084;28;20081;-74
2023/10/06 05:53:07;;;;;;;10.48;2.65;;;15.20;93.00;;;;;;5067099;28;20055;-74
2023/10/06 05:55:35;;;;;;;12.15;1.90;;;15.20;92.90;;;;;;5050272;28;20032;-74
2023/10/06 05:58:03;;;;;;;14.52;2.97;;;15.20;92.80;;;;;;5065381;28;20381;-74
2023/10/06 06:00:30;;;;;;;7.95;2.22;;;15.30;92.60;;;;;;5058008;28;20431;-74
2023/10/06 06:02:58;;;;;;;11.07;2.25;;;15.30;92.70;;;;;;5059580;28;20397;-74
2023/10/06 06:05:25;;;;;;;12.65;2.38;;;15.30;92.80;;;;;;5061810;28;20025;-74
2023/10/06 06:07:51;;;;;;;9.57;2.53;;;15.30;92.70;;;;;;5055546;28;20103;-74
2023/10/06 06:10:18;;;;;;;11.88;2.40;;;15.40;92.60;;;;;;5060074;28;20016;-74
2023/10/06 06:12:44;;;;;;;6.43;1.90;;;15.50;92.20;;;;;;5050725;28;20028;-73
2023/10/06 06:15:11;;;;;;;10.48;2.47;;;15.60;91.90;;;;;;5064835;28;20059;-73
2023/10/06 06:17:37;;;;;;;9.27;1.98;;;15.70;91.80;;;;;;5050545;28;20028;-74
2023/10/06 06:20:07;;;;;;;16.65;2.97;;;15.80;91.80;;;;;;5058504;28;20032;-73
2023/10/06 06:22:36;;;;;;;11.70;2.33;;;15.80;91.80;;;;;;5035466;28;20523;-73
2023/10/06 06:25:05;;;;;;;12.32;2.50;;;15.90;91.80;;;;;;5054448;28;20075;-74
2023/10/06 06:27:32;;;;;;;7.47;1.80;;;16.00;91.70;;;;;;5051497;28;20040;-74
2023/10/06 06:29:58;;;;;;;10.88;2.55;;;16.10;91.60;;;;;;5060559;28;20039;-74
2023/10/06 06:32:25;;;;;;;11.95;2.47;;;16.10;91.70;;;;;;5048836;28;21016;-74
2023/10/06 06:34:51;;;;;;;12.80;2.67;;;16.10;91.40;;;;;;5055665;28;20503;-73
2023/10/06 06:37:17;;;;;;;12.38;2.22;;;16.10;91.40;;;;;;5038329;28;20494;-73
2023/10/06 06:39:44;;;;;;;16.50;3.42;;;16.00;91.40;;;;;;5062046;28;20093;-74
2023/10/06 06:42:10;;;;;;;14.23;2.38;;;16.00;91.40;;;;;;5038337;28;20193;-72
2023/10/06 06:44:36;;;;;;;8.05;2.05;;;16.00;91.30;;;;;;5049753;28;20631;-72
2023/10/06 06:47:02;;;;;;;14.32;2.55;;;16.10;91.30;;;;;;5043563;28;20036;-75
2023/10/06 06:49:28;;;;;;;9.50;2.10;;;16.10;91.30;;;;;;5041920;28;20052;-74
2023/10/06 06:51:57;;;;;;;11.35;2.00;;;16.10;91.10;;;;;;5043376;28;20035;-74
2023/10/06 06:54:23;;;;;;;;;;;16.20;90.80;;;;;;5036963;28;20032;-73
2023/10/06 06:56:49;;;;;;;7.28;1.80;;;16.20;90.70;;;;;;5046301;28;19912;-74
2023/10/06 06:59:15;;;;;;;9.00;1.75;;;16.30;90.50;;;;;;5032071;28;20040;-72
2023/10/06 07:01:40;;;;;;;7.97;2.28;;;16.30;90.40;;;;;;5046840;28;20788;-74
2023/10/06 07:04:07;;;;;;;10.55;2.05;;;16.40;90.30;;;;;;5038705;28;20656;-75
2023/10/06 07:06:35;;;;;;;9.60;1.98;;;16.40;90.10;;;;;;5049720;28;20082;-74
2023/10/06 07:09:01;;;;;;;9.13;1.52;;;16.40;90.00;;;;;;5034836;28;20038;-74
2023/10/06 07:11:27;;;;;;;8.13;1.88;;;16.40;89.90;;;;;;5052259;28;20036;-73
2023/10/06 07:13:55;;;;;;;9.65;2.08;;;16.40;89.90;;;;;;5035465;28;20405;-73
2023/10/06 07:16:24;;;;;;;14.90;2.70;;;16.40;90.00;;;;;;5036398;28;20217;-72
2023/10/06 07:18:50;;;;;;;9.75;2.40;;;16.40;89.90;;;;;;5034601;28;20152;-72
2023/10/06 07:21:17;;;;;;;12.30;3.03;;;16.50;89.70;;;;;;5010297;28;1115703;-72
2023/10/06 07:23:47;;;;;;;10.32;3.80;;;16.50;89.30;;;;;;5023078;28;20040;-72
2023/10/06 07:26:13;;;;;;;8.68;2.95;;;16.60;89.00;;;;;;5047066;28;20032;-73
2023/10/06 07:28:40;;;;;;;10.55;2.47;;;16.60;88.10;;;;;;5035922;28;20064;-74
2023/10/06 07:31:13;;;;;;;9.52;2.38;;;16.70;88.10;;;;;;5039788;28;20048;-74
2023/10/06 07:33:39;;;;;;;8.77;2.50;;;16.80;87.90;;;;;;5030100;28;20036;-73
2023/10/06 07:36:13;;;;;;;11.48;1.90;;;16.90;87.60;;;;;;5042696;28;20435;-73
2023/10/06 07:38:39;;;;;;;10.77;2.33;;;16.90;87.40;;;;;;5043371;28;20490;-74
2023/10/06 07:41:05;;;;;;;8.50;1.92;;;17.00;87.30;;;;;;5045017;28;20733;-73
2023/10/06 07:43:31;;;;;;;10.93;1.75;;;17.10;87.00;;;;;;5037682;28;20049;-74
2023/10/06 07:46:01;;;;;;;11.63;2.65;;;17.30;86.50;;;;;;5035956;28;21114;-75
2023/10/06 07:48:26;;;;;;;12.15;2.20;;;17.40;85.80;;;;;;5049640;28;20043;-72
2023/10/06 07:50:52;;;;;;;13.38;2.13;;;17.50;85.30;;;;;;5034047;28;20031;-74
2023/10/06 07:53:18;;;;;;;11.48;1.85;;;17.50;84.90;;;;;;5050899;28;20703;-74
2023/10/06 07:55:43;;;;;;;9.80;2.50;;;17.50;85.00;;;;;;5037387;28;20043;-76
2023/10/06 07:58:10;;;;;;;10.32;2.15;;;17.40;85.00;;;;;;5051888;28;20048;-75
2023/10/06 08:00:38;;;;;;;8.15;2.33;;;17.30;85.60;;;;;;5036336;28;20437;-74
2023/10/06 08:03:04;;;;;;;8.00;2.47;;;17.30;85.50;;;;;;5045204;28;20158;-74
2023/10/06 08:05:30;;;;;;;11.98;2.28;;;17.30;85.20;;;;;;5042398;28;20322;-74
2023/10/06 08:07:58;;;;;;;6.40;2.15;;;17.20;85.50;;;;;;5052737;28;20636;-75
2023/10/06 08:10:24;;;;;;;8.40;2.55;;;17.20;85.70;;;;;;5036527;28;20039;-74
2023/10/06 08:12:52;;;;;;;10.38;2.30;;;17.20;85.80;;;;;;5054796;28;20036;-74
2023/10/06 08:15:21;;;;;;;9.43;2.07;;;17.20;85.90;;;;;;5041414;28;20025;-74
2023/10/06 08:17:50;;;;;;;11.23;2.05;;;17.30;85.80;;;;;;5050057;28;20275;-74
2023/10/06 08:20:17;;;;;;;8.50;2.22;;;17.40;85.80;;;;;;5043270;28;20772;-76
2023/10/06 08:22:46;;;;;;;10.18;1.90;;;17.40;85.30;;;;;;5051321;28;20412;-72
2023/10/06 08:25:14;;;;;;;;;;;17.40;85.30;;;;;;5049404;28;20056;-72
2023/10/06 08:27:41;;;;;;;10.38;2.00;;;17.50;85.30;;;;;;5054259;28;19938;-73
2023/10/06 08:30:09;;;;;;;5.25;1.63;;;17.60;84.70;;;;;;5051066;28;20036;-72
2023/10/06 08:32:35;;;;;;;7.38;2.00;;;17.70;84.70;;;;;;5048887;28;20059;-76
2023/10/06 08:35:00;;;;;;;11.18;2.05;;;17.70;84.20;;;;;;5056186;28;20060;-74
2023/10/06 08:37:27;;;;;;;9.32;2.13;;;17.90;84.30;;;;;;5041332;28;20032;-75
2023/10/06 08:39:55;;;;;;;11.55;2.45;;;17.90;84.30;;;;;;5063545;28;20038;-75
2023/10/06 08:42:21;;;;;;;13.68;2.83;;;18.10;83.60;;;;;;5043944;28;20442;-73
2023/10/06 08:44:47;;;;;;;9.80;2.10;;;18.30;82.90;;;;;;5058407;28;20632;-73
2023/10/06 08:47:14;;;;;;;8.88;2.35;;;18.30;82.40;;;;;;5051357;28;20047;-73
2023/10/06 08:49:41;;;;;;;7.20;2.15;;;18.40;81.30;;;;;;5064211;28;20385;-74
2023/10/06 08:52:09;;;;;;;10.80;1.70;;;18.40;81.30;;;;;;5046759;28;20036;-73
2023/10/06 08:54:36;;;;;;;11.50;2.10;;;18.70;80.90;;;;;;5058788;28;20035;-74
2023/10/06 08:57:03;;;;;;;8.02;1.98;;;19.00;80.20;;;;;;5045658;28;20530;-74
2023/10/06 08:59:31;;;;;;;10.35;2.50;;;19.00;79.30;;;;;;5057940;28;20043;-74
2023/10/06 09:01:59;;;;;;;9.15;1.70;;;19.00;78.90;;;;;;5049211;28;20037;-75
2023/10/06 09:04:33;;;;;;;10.40;1.75;;;19.00;78.70;;;;;;5054704;28;20135;-75
2023/10/06 09:07:11;;;;;;;10.55;2.08;;;19.10;77.80;;;;;;5050754;28;20102;-74
2023/10/06 09:09:38;;;;;;;6.55;1.88;;;19.20;77.90;;;;;;5056671;28;21265;-75
2023/10/06 09:12:04;;;;;;;9.02;2.08;;;19.30;77.00;;;;;;5058614;28;20036;-75
2023/10/06 09:14:30;;;;;;;13.05;1.95;;;19.50;77.20;;;;;;5071563;28;20020;-74
2023/10/06 09:17:01;;;;;;;14.55;2.45;;;19.40;76.90;;;;;;5049310;28;20036;-74
2023/10/06 09:19:46;;;;;;;12.13;2.10;;;19.50;76.50;;;;;;5056547;28;20044;-73
2023/10/06 09:22:12;;;;;;;5.10;1.58;;;19.50;76.10;;;;;;5042004;28;20048;-74
2023/10/06 09:24:39;;;;;;;11.35;1.75;;;19.60;75.80;;;;;;5051375;28;20125;-73
2023/10/06 09:27:21;;;;;;;10.85;2.13;;;19.80;75.30;;;;;;5050191;28;20035;-74
2023/10/06 09:29:47;;;;;;;8.32;1.75;;;20.00;74.50;;;;;;5047069;28;20056;-74
2023/10/06 09:32:22;;;;;;;8.70;1.85;;;19.90;74.50;;;;;;5052761;28;20123;-73
2023/10/06 09:34:53;;;;;;;8.65;2.33;;;19.90;74.50;;;;;;5045787;28;20055;-74
2023/10/06 09:37:20;;;;;;;10.95;2.10;;;20.00;74.70;;;;;;5051474;28;20035;-74
2023/10/06 09:39:57;;;;;;;8.38;1.88;;;19.90;74.10;;;;;;5052250;28;20520;-74
2023/10/06 09:42:27;;;;;;;8.80;2.08;;;19.70;75.20;;;;;;5051944;28;20733;-73
2023/10/06 09:45:05;;;;;;;11.23;2.25;;;19.40;75.70;;;;;;5040828;28;20094;-74
2023/10/06 09:47:36;;;;;;;7.72;1.88;;;19.20;76.50;;;;;;5051145;28;20046;-74
2023/10/06 09:50:03;;;;;;;9.38;2.20;;;19.20;77.10;;;;;;5039701;28;20093;-74
2023/10/06 09:52:30;;;;;;;7.97;1.83;;;19.20;76.70;;;;;;5057071;28;20028;-73
2023/10/06 09:54:57;;;;;;;6.28;2.38;;;19.30;76.40;;;;;;5056462;28;20040;-74
2023/10/06 09:57:24;;;;;;;7.03;2.20;;;19.40;75.60;;;;;;5040402;28;20033;-74
2023/10/06 09:59:55;;;;;;;4.75;1.70;;;19.40;76.10;;;;;;5056422;28;20036;-74
2023/10/06 10:02:21;;;;;;;12.43;1.83;;;19.60;75.80;;;;;;5043741;28;20684;-74
2023/10/06 10:04:48;;;;;;;7.57;2.03;;;19.60;75.70;;;;;;5050788;28;20917;-73
2023/10/06 10:07:15;;;;;;;7.72;1.73;;;19.70;75.90;;;;;;5044277;28;20439;-73
2023/10/06 10:09:43;;;;;;;5.13;1.60;;;19.80;75.80;;;;;;5053718;28;20157;-74
2023/10/06 10:12:23;;;;;;;10.93;1.75;;;19.80;75.00;;;;;;5046481;28;20028;-73
2023/10/06 10:15:02;;;;;;;13.93;2.13;;;19.80;75.40;;;;;;5061076;28;20038;-75
2023/10/06 10:17:48;;;;;;;9.85;2.03;;;20.00;74.60;;;;;;5042616;28;20111;-73
2023/10/06 10:20:16;;;;;;;16.10;3.00;;;20.10;74.30;;;;;;5058427;28;20052;-73
2023/10/06 10:22:43;;;;;;;9.57;2.30;;;20.00;75.50;;;;;;5047535;28;20420;-74
2023/10/06 10:25:13;;;;;;;7.43;2.28;;;20.10;76.10;;;;;;5057739;28;20032;-73
2023/10/06 10:27:39;;;;;;;11.23;2.05;;;20.50;75.20;;;;;;5047013;28;20036;-73
2023/10/06 10:30:46;;;;;;;6.72;2.17;;;20.50;73.60;;;;;;5050545;28;20131;-74
2023/10/06 10:33:20;;;;;;;8.82;2.35;;;20.50;73.80;;;;;;5046226;28;20036;-74
2023/10/06 10:36:20;;;;;;;7.45;2.10;;;20.70;73.30;;;;;;5055332;28;20060;-73
2023/10/06 10:39:00;;;;;;;6.25;1.60;;;20.60;72.80;;;;;;5045647;28;20055;-73
2023/10/06 10:41:33;;;;;;;7.72;2.00;;;20.80;73.10;;;;;;5053696;28;20044;-74
2023/10/06 10:44:01;;;;;;;8.60;2.15;;;20.60;73.50;;;;;;5043354;28;20028;-74
2023/10/06 10:46:47;;;;;;;8.93;2.07;;;20.70;73.10;;;;;;5059347;28;20428;-73
2023/10/06 10:49:13;;;;;;;12.50;2.65;;;20.70;73.60;;;;;;5044121;28;20081;-71
2023/10/06 10:51:48;;;;;;;12.82;2.60;;;20.50;73.70;;;;;;5056153;28;20714;-73
2023/10/06 10:54:20;;;;;;;11.32;2.38;;;20.20;75.30;;;;;;5052062;28;20031;-72
2023/10/06 10:56:49;;;;;;;8.75;1.65;;;20.20;75.80;;;;;;5057785;28;21693;-72
2023/10/06 10:59:16;;;;;;;8.05;1.90;;;20.30;76.00;;;;;;5047721;28;20040;-74
2023/10/06 11:01:44;;;;;;;15.05;2.00;;;20.30;75.80;;;;;;5057964;28;20069;-72
2023/10/06 11:04:12;;;;;;;10.30;2.45;;;20.20;76.10;;;;;;5042032;28;20043;-73
2023/10/06 11:06:39;;;;;;;9.00;2.65;;;20.20;75.80;;;;;;5056035;28;20063;-73
2023/10/06 11:09:22;;;;;;;12.55;2.30;;;20.30;75.60;;;;;;5049779;28;20040;-72
2023/10/06 11:11:48;;;;;;;14.85;2.35;;;20.30;75.80;;;;;;5057186;28;20036;-74
2023/10/06 11:14:14;;;;;;;8.68;2.20;;;20.50;75.00;;;;;;5046833;28;20396;-73
2023/10/06 11:16:47;;;;;;;10.13;2.13;;;20.30;75.70;;;;;;5045444;28;20397;-72
2023/10/06 11:19:15;;;;;;;12.98;2.60;;;20.30;75.50;;;;;;5046789;28;20052;-74
2023/10/06 11:21:44;;;;;;;13.10;3.40;;;20.30;76.00;;;;;;5056221;28;20056;-71
2023/10/06 11:24:13;;;;;;;8.65;2.22;;;20.30;76.00;;;;;;5043138;28;20103;-74
2023/10/06 11:26:38;;;;;;;7.60;2.08;;;20.50;75.40;;;;;;5063672;28;20052;-74
2023/10/06 11:29:04;;;;;;;11.88;2.05;;;20.50;75.30;;;;;;5049736;28;20199;-72
2023/10/06 11:31:30;;;;;;;6.97;1.92;;;20.50;75.90;;;;;;5053572;28;20032;-73
2023/10/06 11:33:57;;;;;;;12.27;2.78;;;20.40;75.60;;;;;;5049935;28;20114;-75
2023/10/06 11:36:23;;;;;;;12.02;2.50;;;20.50;75.60;;;;;;5054265;28;20029;-75
2023/10/06 11:38:50;;;;;;;10.95;2.40;;;20.50;74.70;;;;;;5046917;28;20459;-73
2023/10/06 11:41:31;;;;;;;10.77;2.30;;;20.60;74.70;;;;;;5060540;28;20173;-73
2023/10/06 11:43:58;;;;;;;8.30;2.00;;;20.50;75.20;;;;;;5047770;28;20601;-75
2023/10/06 11:46:24;;;;;;;11.85;2.20;;;20.60;74.60;;;;;;5061465;28;20039;-73
2023/10/06 11:48:52;;;;;;;12.35;2.20;;;20.70;75.00;;;;;;5056598;28;20040;-73
2023/10/06 11:51:18;;;;;;;13.23;2.50;;;20.90;74.70;;;;;;5053202;28;20632;-75
2023/10/06 11:53:44;;;;;;;13.00;2.25;;;20.90;74.30;;;;;;5059414;28;20047;-72
2023/10/06 11:56:13;;;;;;;8.80;2.17;;;20.80;73.60;;;;;;5055760;28;20066;-75
2023/10/06 11:58:40;;;;;;;8.45;2.13;;;20.60;74.50;;;;;;5061551;28;20134;-74
2023/10/06 12:01:31;;;;;;;9.52;2.28;;;20.70;74.90;;;;;;5043678;28;20036;-74
2023/10/06 12:03:59;;;;;;;12.32;2.60;;;20.70;74.30;;;;;;5057175;28;20082;-76
2023/10/06 12:06:36;;;;;;;7.05;2.00;;;21.00;74.00;;;;;;5048985;28;20044;-75
2023/10/06 12:09:02;;;;;;;11.15;2.50;;;20.90;73.10;;;;;;5055076;28;20037;-76
2023/10/06 12:11:28;;;;;;;10.45;2.75;;;21.00;73.10;;;;;;5037198;28;20519;-74
2023/10/06 12:13:54;;;;;;;12.57;1.90;;;20.80;73.40;;;;;;5046722;28;20032;-74
2023/10/06 12:16:19;;;;;;;10.80;2.38;;;20.80;74.70;;;;;;5050904;28;20024;-74
2023/10/06 12:18:46;;;;;;;8.18;1.98;;;20.90;74.50;;;;;;5057195;28;20072;-74
2023/10/06 12:21:15;;;;;;;12.07;1.73;;;21.00;74.00;;;;;;5047274;28;20461;-75
2023/10/06 12:23:41;;;;;;;11.13;2.00;;;21.00;72.60;;;;;;5051315;28;20048;-74
2023/10/06 12:26:07;;;;;;;9.15;2.17;;;21.10;72.40;;;;;;5047640;28;20032;-75
2023/10/06 12:28:33;;;;;;;11.20;2.75;;;21.10;72.90;;;;;;5060677;28;20043;-74
2023/10/06 12:30:58;;;;;;;9.65;2.10;;;21.10;72.70;;;;;;5048068;28;20060;-74
2023/10/06 12:33:24;;;;;;;10.07;2.38;;;21.10;72.20;;;;;;5060820;28;20032;-73
2023/10/06 12:35:52;;;;;;;8.35;1.95;;;21.10;72.40;;;;;;5042000;28;20114;-75
2023/10/06 12:38:18;;;;;;;13.50;2.38;;;21.30;71.70;;;;;;5047795;28;20059;-76
2023/10/06 12:40:48;;;;;;;13.18;2.28;;;21.10;72.00;;;;;;5039698;28;20032;-75
2023/10/06 12:43:16;;;;;;;12.63;2.47;;;20.80;73.30;;;;;;5046595;28;20032;-77
2023/10/06 12:45:42;;;;;;;9.45;2.50;;;20.60;74.60;;;;;;5053908;28;20033;-75
2023/10/06 12:48:08;;;;;;;10.13;2.28;;;20.80;74.70;;;;;;5052280;28;20775;-76
2023/10/06 12:50:41;;;;;;;15.30;2.90;;;20.80;73.70;;;;;;5051973;28;20491;-78